sensor_id;sensor_type;location;lat;lon;timestamp;P1;durP1;ratioP1;P2;durP2;ratioP2
38937;SDS011;24727;51.974;20.868;2022-12-18T00:03:52;43.08;;;16.70;;
38937;SDS011;24727;51.974;20.868;2022-12-18T00:06:21;39.63;;;17.83;;
38937;SDS011;24727;51.974;20.868;2022-12-18T00:08:48;44.67;;;19.57;;
38937;SDS011;24727;51.974;20.868;2022-12-18T00:11:17;46.43;;;20.30;;
38937;SDS011;24727;51.974;20.868;2022-12-18T00:13:45;52.13;;;20.50;;
38937;SDS011;24727;51.974;20.868;2022-12-18T00:16:13;54.50;;;18.57;;
38937;SDS011;24727;51.974;20.868;2022-12-18T00:18:42;46.87;;;20.10;;
38937;SDS011;24727;51.974;20.868;2022-12-18T00:21:10;43.53;;;20.43;;
38937;SDS011;24727;51.974;20.868;2022-12-18T00:23:37;44.83;;;18.57;;
38937;SDS011;24727;51.974;20.868;2022-12-18T00:26:06;38.70;;;17.90;;
38937;SDS011;24727;51.974;20.868;2022-12-18T00:28:34;42.70;;;18.03;;
38937;SDS011;24727;51.974;20.868;2022-12-18T00:31:06;34.87;;;16.27;;
38937;SDS011;24727;51.974;20.868;2022-12-18T00:33:35;43.17;;;18.70;;
38937;SDS011;24727;51.974;20.868;2022-12-18T00:36:22;40.20;;;16.97;;
38937;SDS011;24727;51.974;20.868;2022-12-18T00:38:51;39.30;;;17.27;;
38937;SDS011;24727;51.974;20.868;2022-12-18T00:41:19;43.80;;;17.63;;
38937;SDS011;24727;51.974;20.868;2022-12-18T00:44:05;45.73;;;18.33;;
38937;SDS011;24727;51.974;20.868;2022-12-18T00:46:34;39.07;;;15.80;;
38937;SDS011;24727;51.974;20.868;2022-12-18T00:49:00;38.90;;;17.23;;
38937;SDS011;24727;51.974;20.868;2022-12-18T00:51:26;42.37;;;17.97;;
38937;SDS011;24727;51.974;20.868;2022-12-18T00:53:53;41.03;;;17.13;;
38937;SDS011;24727;51.974;20.868;2022-12-18T00:56:19;44.63;;;17.90;;
38937;SDS011;24727;51.974;20.868;2022-12-18T00:58:45;44.47;;;16.30;;
38937;SDS011;24727;51.974;20.868;2022-12-18T01:01:13;45.97;;;17.07;;
38937;SDS011;24727;51.974;20.868;2022-12-18T01:03:41;44.37;;;18.03;;
38937;SDS011;24727;51.974;20.868;2022-12-18T01:06:09;42.33;;;16.57;;
38937;SDS011;24727;51.974;20.868;2022-12-18T01:08:39;42.17;;;16.67;;
38937;SDS011;24727;51.974;20.868;2022-12-18T01:11:11;44.37;;;17.90;;
38937;SDS011;24727;51.974;20.868;2022-12-18T01:13:48;42.60;;;16.63;;
38937;SDS011;24727;51.974;20.868;2022-12-18T01:16:16;44.93;;;17.90;;
38937;SDS011;24727;51.974;20.868;2022-12-18T01:18:43;42.20;;;16.67;;
38937;SDS011;24727;51.974;20.868;2022-12-18T01:21:09;45.20;;;17.27;;
38937;SDS011;24727;51.974;20.868;2022-12-18T01:23:38;44.33;;;18.80;;
38937;SDS011;24727;51.974;20.868;2022-12-18T01:26:06;37.87;;;14.43;;
38937;SDS011;24727;51.974;20.868;2022-12-18T01:28:33;38.47;;;15.90;;
38937;SDS011;24727;51.974;20.868;2022-12-18T01:31:22;48.97;;;16.10;;
38937;SDS011;24727;51.974;20.868;2022-12-18T01:36:21;46.37;;;19.43;;
38937;SDS011;24727;51.974;20.868;2022-12-18T01:39:05;43.23;;;17.63;;
38937;SDS011;24727;51.974;20.868;2022-12-18T01:41:36;42.17;;;17.17;;
38937;SDS011;24727;51.974;20.868;2022-12-18T01:50:16;39.93;;;15.53;;
38937;SDS011;24727;51.974;20.868;2022-12-18T01:55:46;48.63;;;19.40;;
38937;SDS011;24727;51.974;20.868;2022-12-18T01:58:16;49.60;;;19.23;;
38937;SDS011;24727;51.974;20.868;2022-12-18T02:00:43;46.63;;;18.93;;
38937;SDS011;24727;51.974;20.868;2022-12-18T02:03:10;54.50;;;19.67;;
38937;SDS011;24727;51.974;20.868;2022-12-18T02:08:20;51.93;;;19.07;;
38937;SDS011;24727;51.974;20.868;2022-12-18T02:10:58;48.23;;;19.40;;
38937;SDS011;24727;51.974;20.868;2022-12-18T02:18:49;48.63;;;18.23;;
38937;SDS011;24727;51.974;20.868;2022-12-18T02:21:40;43.67;;;17.30;;
38937;SDS011;24727;51.974;20.868;2022-12-18T02:26:55;40.87;;;16.90;;
38937;SDS011;24727;51.974;20.868;2022-12-18T02:29:25;42.85;;;17.90;;
38937;SDS011;24727;51.974;20.868;2022-12-18T02:32:00;47.30;;;20.90;;
38937;SDS011;24727;51.974;20.868;2022-12-18T02:34:30;41.20;;;17.90;;
38937;SDS011;24727;51.974;20.868;2022-12-18T02:37:01;45.63;;;17.02;;
38937;SDS011;24727;51.974;20.868;2022-12-18T02:39:32;43.70;;;15.77;;
38937;SDS011;24727;51.974;20.868;2022-12-18T02:42:02;42.22;;;18.63;;
38937;SDS011;24727;51.974;20.868;2022-12-18T02:44:34;44.05;;;18.80;;
38937;SDS011;24727;51.974;20.868;2022-12-18T02:47:08;42.07;;;17.83;;
38937;SDS011;24727;51.974;20.868;2022-12-18T02:52:29;49.53;;;18.30;;
38937;SDS011;24727;51.974;20.868;2022-12-18T02:55:25;52.47;;;21.00;;
38937;SDS011;24727;51.974;20.868;2022-12-18T02:58:05;58.27;;;20.17;;
38937;SDS011;24727;51.974;20.868;2022-12-18T03:03:27;58.27;;;22.90;;
38937;SDS011;24727;51.974;20.868;2022-12-18T03:08:39;52.20;;;20.10;;
38937;SDS011;24727;51.974;20.868;2022-12-18T03:11:11;61.07;;;23.57;;
38937;SDS011;24727;51.974;20.868;2022-12-18T03:13:43;56.10;;;20.80;;
38937;SDS011;24727;51.974;20.868;2022-12-18T03:16:11;54.78;;;18.58;;
38937;SDS011;24727;51.974;20.868;2022-12-18T03:18:54;54.40;;;23.70;;
38937;SDS011;24727;51.974;20.868;2022-12-18T03:21:40;53.37;;;20.20;;
38937;SDS011;24727;51.974;20.868;2022-12-18T03:24:14;53.00;;;21.17;;
38937;SDS011;24727;51.974;20.868;2022-12-18T03:26:44;53.80;;;22.10;;
38937;SDS011;24727;51.974;20.868;2022-12-18T03:29:16;56.97;;;22.45;;
38937;SDS011;24727;51.974;20.868;2022-12-18T03:31:56;51.07;;;20.37;;
38937;SDS011;24727;51.974;20.868;2022-12-18T03:34:32;52.03;;;19.77;;
38937;SDS011;24727;51.974;20.868;2022-12-18T03:37:03;44.03;;;16.30;;
38937;SDS011;24727;51.974;20.868;2022-12-18T03:39:30;44.03;;;17.17;;
38937;SDS011;24727;51.974;20.868;2022-12-18T03:42:07;52.67;;;18.27;;
38937;SDS011;24727;51.974;20.868;2022-12-18T03:48:31;40.00;;;15.43;;
38937;SDS011;24727;51.974;20.868;2022-12-18T03:53:39;46.77;;;17.67;;
38937;SDS011;24727;51.974;20.868;2022-12-18T03:56:17;43.80;;;17.37;;
38937;SDS011;24727;51.974;20.868;2022-12-18T03:58:44;47.50;;;17.63;;
38937;SDS011;24727;51.974;20.868;2022-12-18T04:01:13;40.87;;;19.03;;
38937;SDS011;24727;51.974;20.868;2022-12-18T04:03:42;37.50;;;17.47;;
38937;SDS011;24727;51.974;20.868;2022-12-18T04:06:12;44.63;;;15.77;;
38937;SDS011;24727;51.974;20.868;2022-12-18T04:08:40;39.40;;;16.17;;
38937;SDS011;24727;51.974;20.868;2022-12-18T04:11:08;38.03;;;14.67;;
38937;SDS011;24727;51.974;20.868;2022-12-18T04:16:06;39.93;;;16.40;;
38937;SDS011;24727;51.974;20.868;2022-12-18T04:18:35;42.23;;;15.77;;
38937;SDS011;24727;51.974;20.868;2022-12-18T04:21:02;39.97;;;15.53;;
38937;SDS011;24727;51.974;20.868;2022-12-18T04:23:28;41.07;;;15.10;;
38937;SDS011;24727;51.974;20.868;2022-12-18T04:25:55;39.63;;;15.57;;
38937;SDS011;24727;51.974;20.868;2022-12-18T04:28:21;44.00;;;16.17;;
38937;SDS011;24727;51.974;20.868;2022-12-18T04:30:47;38.80;;;16.20;;
38937;SDS011;24727;51.974;20.868;2022-12-18T04:33:13;35.30;;;14.33;;
38937;SDS011;24727;51.974;20.868;2022-12-18T04:35:40;40.87;;;14.73;;
38937;SDS011;24727;51.974;20.868;2022-12-18T04:38:07;40.20;;;14.23;;
38937;SDS011;24727;51.974;20.868;2022-12-18T04:40:36;45.63;;;18.17;;
38937;SDS011;24727;51.974;20.868;2022-12-18T04:43:04;45.27;;;18.13;;
38937;SDS011;24727;51.974;20.868;2022-12-18T04:45:32;41.37;;;16.30;;
38937;SDS011;24727;51.974;20.868;2022-12-18T04:47:59;38.77;;;16.10;;
38937;SDS011;24727;51.974;20.868;2022-12-18T04:50:28;35.93;;;13.67;;
38937;SDS011;24727;51.974;20.868;2022-12-18T04:52:55;40.83;;;15.47;;
38937;SDS011;24727;51.974;20.868;2022-12-18T04:55:29;41.23;;;15.63;;
38937;SDS011;24727;51.974;20.868;2022-12-18T04:57:57;38.30;;;14.87;;
38937;SDS011;24727;51.974;20.868;2022-12-18T05:00:24;37.00;;;14.73;;
38937;SDS011;24727;51.974;20.868;2022-12-18T05:02:52;35.13;;;14.50;;
38937;SDS011;24727;51.974;20.868;2022-12-18T05:05:18;38.90;;;16.27;;
38937;SDS011;24727;51.974;20.868;2022-12-18T05:07:44;42.10;;;15.70;;
38937;SDS011;24727;51.974;20.868;2022-12-18T05:12:39;41.23;;;16.30;;
38937;SDS011;24727;51.974;20.868;2022-12-18T05:15:24;46.40;;;17.70;;
38937;SDS011;24727;51.974;20.868;2022-12-18T05:18:02;47.53;;;17.83;;
38937;SDS011;24727;51.974;20.868;2022-12-18T05:20:29;36.50;;;14.23;;
38937;SDS011;24727;51.974;20.868;2022-12-18T05:22:56;38.23;;;14.60;;
38937;SDS011;24727;51.974;20.868;2022-12-18T05:25:23;35.03;;;15.30;;
38937;SDS011;24727;51.974;20.868;2022-12-18T05:27:48;37.00;;;14.93;;
38937;SDS011;24727;51.974;20.868;2022-12-18T05:30:14;39.63;;;16.83;;
38937;SDS011;24727;51.974;20.868;2022-12-18T05:32:41;45.13;;;16.03;;
38937;SDS011;24727;51.974;20.868;2022-12-18T05:35:09;39.90;;;15.17;;
38937;SDS011;24727;51.974;20.868;2022-12-18T05:37:36;38.27;;;15.77;;
38937;SDS011;24727;51.974;20.868;2022-12-18T05:40:03;40.43;;;15.20;;
38937;SDS011;24727;51.974;20.868;2022-12-18T05:42:31;35.43;;;15.67;;
38937;SDS011;24727;51.974;20.868;2022-12-18T05:44:57;47.10;;;15.80;;
38937;SDS011;24727;51.974;20.868;2022-12-18T05:47:24;39.27;;;15.90;;
38937;SDS011;24727;51.974;20.868;2022-12-18T05:49:52;35.30;;;13.87;;
38937;SDS011;24727;51.974;20.868;2022-12-18T05:52:20;36.07;;;14.83;;
38937;SDS011;24727;51.974;20.868;2022-12-18T05:54:47;37.53;;;14.40;;
38937;SDS011;24727;51.974;20.868;2022-12-18T05:57:13;38.03;;;13.97;;
38937;SDS011;24727;51.974;20.868;2022-12-18T05:59:40;36.20;;;13.50;;
38937;SDS011;24727;51.974;20.868;2022-12-18T06:02:06;35.30;;;14.20;;
38937;SDS011;24727;51.974;20.868;2022-12-18T06:04:32;37.20;;;14.30;;
38937;SDS011;24727;51.974;20.868;2022-12-18T06:06:58;42.50;;;14.40;;
38937;SDS011;24727;51.974;20.868;2022-12-18T06:09:24;39.97;;;15.63;;
38937;SDS011;24727;51.974;20.868;2022-12-18T06:11:52;43.60;;;18.60;;
38937;SDS011;24727;51.974;20.868;2022-12-18T06:14:18;43.30;;;16.83;;
38937;SDS011;24727;51.974;20.868;2022-12-18T06:16:44;45.37;;;18.23;;
38937;SDS011;24727;51.974;20.868;2022-12-18T06:19:12;43.17;;;16.50;;
38937;SDS011;24727;51.974;20.868;2022-12-18T06:21:40;47.27;;;17.67;;
38937;SDS011;24727;51.974;20.868;2022-12-18T06:24:07;46.80;;;18.03;;
38937;SDS011;24727;51.974;20.868;2022-12-18T06:26:33;44.63;;;16.67;;
38937;SDS011;24727;51.974;20.868;2022-12-18T06:28:59;51.70;;;17.63;;
38937;SDS011;24727;51.974;20.868;2022-12-18T06:33:56;40.47;;;16.77;;
38937;SDS011;24727;51.974;20.868;2022-12-18T06:36:23;45.17;;;15.63;;
38937;SDS011;24727;51.974;20.868;2022-12-18T06:38:49;49.50;;;19.40;;
38937;SDS011;24727;51.974;20.868;2022-12-18T06:41:16;47.70;;;18.90;;
38937;SDS011;24727;51.974;20.868;2022-12-18T06:43:45;57.70;;;19.70;;
38937;SDS011;24727;51.974;20.868;2022-12-18T06:46:12;54.10;;;19.13;;
38937;SDS011;24727;51.974;20.868;2022-12-18T06:48:38;50.63;;;19.63;;
38937;SDS011;24727;51.974;20.868;2022-12-18T06:51:05;48.30;;;19.43;;
38937;SDS011;24727;51.974;20.868;2022-12-18T06:53:31;50.30;;;20.87;;
38937;SDS011;24727;51.974;20.868;2022-12-18T06:56:05;49.23;;;18.07;;
38937;SDS011;24727;51.974;20.868;2022-12-18T06:58:34;54.03;;;19.73;;
38937;SDS011;24727;51.974;20.868;2022-12-18T07:01:04;53.67;;;21.67;;
38937;SDS011;24727;51.974;20.868;2022-12-18T07:03:32;52.43;;;21.00;;
38937;SDS011;24727;51.974;20.868;2022-12-18T07:05:58;58.67;;;21.17;;
38937;SDS011;24727;51.974;20.868;2022-12-18T07:08:24;59.80;;;20.07;;
38937;SDS011;24727;51.974;20.868;2022-12-18T07:10:51;53.13;;;19.53;;
38937;SDS011;24727;51.974;20.868;2022-12-18T07:13:18;58.07;;;19.13;;
38937;SDS011;24727;51.974;20.868;2022-12-18T07:15:44;46.23;;;19.90;;
38937;SDS011;24727;51.974;20.868;2022-12-18T07:18:10;54.13;;;21.10;;
38937;SDS011;24727;51.974;20.868;2022-12-18T07:20:36;61.30;;;22.47;;
38937;SDS011;24727;51.974;20.868;2022-12-18T07:23:03;50.27;;;19.50;;
38937;SDS011;24727;51.974;20.868;2022-12-18T07:25:35;52.60;;;21.00;;
38937;SDS011;24727;51.974;20.868;2022-12-18T07:28:03;52.63;;;20.30;;
38937;SDS011;24727;51.974;20.868;2022-12-18T07:30:29;55.30;;;20.33;;
38937;SDS011;24727;51.974;20.868;2022-12-18T07:32:55;51.13;;;18.80;;
38937;SDS011;24727;51.974;20.868;2022-12-18T07:35:23;55.30;;;23.33;;
38937;SDS011;24727;51.974;20.868;2022-12-18T07:37:49;55.57;;;21.53;;
38937;SDS011;24727;51.974;20.868;2022-12-18T07:40:16;58.83;;;21.97;;
38937;SDS011;24727;51.974;20.868;2022-12-18T07:42:46;54.03;;;20.70;;
38937;SDS011;24727;51.974;20.868;2022-12-18T07:45:13;61.20;;;21.20;;
38937;SDS011;24727;51.974;20.868;2022-12-18T07:47:41;60.00;;;22.77;;
38937;SDS011;24727;51.974;20.868;2022-12-18T07:50:07;67.37;;;23.70;;
38937;SDS011;24727;51.974;20.868;2022-12-18T07:52:33;59.50;;;23.20;;
38937;SDS011;24727;51.974;20.868;2022-12-18T07:55:06;57.97;;;21.43;;
38937;SDS011;24727;51.974;20.868;2022-12-18T07:57:32;65.37;;;22.53;;
38937;SDS011;24727;51.974;20.868;2022-12-18T07:59:58;57.97;;;22.13;;
38937;SDS011;24727;51.974;20.868;2022-12-18T08:02:24;67.83;;;23.30;;
38937;SDS011;24727;51.974;20.868;2022-12-18T08:04:50;62.30;;;21.47;;
38937;SDS011;24727;51.974;20.868;2022-12-18T08:07:17;49.77;;;20.50;;
38937;SDS011;24727;51.974;20.868;2022-12-18T08:09:43;65.13;;;21.90;;
38937;SDS011;24727;51.974;20.868;2022-12-18T08:12:09;54.63;;;22.43;;
38937;SDS011;24727;51.974;20.868;2022-12-18T08:14:35;59.97;;;22.90;;
38937;SDS011;24727;51.974;20.868;2022-12-18T08:17:02;57.03;;;21.83;;
38937;SDS011;24727;51.974;20.868;2022-12-18T08:19:28;58.17;;;23.53;;
38937;SDS011;24727;51.974;20.868;2022-12-18T08:21:55;57.53;;;22.67;;
38937;SDS011;24727;51.974;20.868;2022-12-18T08:24:28;61.20;;;22.57;;
38937;SDS011;24727;51.974;20.868;2022-12-18T08:26:55;57.10;;;20.27;;
38937;SDS011;24727;51.974;20.868;2022-12-18T08:29:22;50.80;;;21.70;;
38937;SDS011;24727;51.974;20.868;2022-12-18T08:31:48;55.73;;;21.90;;
38937;SDS011;24727;51.974;20.868;2022-12-18T08:34:15;59.23;;;21.67;;
38937;SDS011;24727;51.974;20.868;2022-12-18T08:36:42;61.47;;;22.90;;
38937;SDS011;24727;51.974;20.868;2022-12-18T08:39:07;47.17;;;20.17;;
38937;SDS011;24727;51.974;20.868;2022-12-18T08:41:34;70.90;;;25.27;;
38937;SDS011;24727;51.974;20.868;2022-12-18T08:44:00;65.60;;;22.93;;
38937;SDS011;24727;51.974;20.868;2022-12-18T08:46:46;64.83;;;23.17;;
38937;SDS011;24727;51.974;20.868;2022-12-18T08:49:18;63.10;;;22.47;;
38937;SDS011;24727;51.974;20.868;2022-12-18T08:54:11;67.70;;;25.77;;
38937;SDS011;24727;51.974;20.868;2022-12-18T08:56:41;60.67;;;22.83;;
38937;SDS011;24727;51.974;20.868;2022-12-18T08:59:07;63.90;;;23.97;;
38937;SDS011;24727;51.974;20.868;2022-12-18T09:01:34;54.70;;;21.53;;
38937;SDS011;24727;51.974;20.868;2022-12-18T09:04:00;55.27;;;21.57;;
38937;SDS011;24727;51.974;20.868;2022-12-18T09:06:27;48.77;;;19.30;;
38937;SDS011;24727;51.974;20.868;2022-12-18T09:08:53;59.20;;;21.63;;
38937;SDS011;24727;51.974;20.868;2022-12-18T09:11:20;51.57;;;18.50;;
38937;SDS011;24727;51.974;20.868;2022-12-18T09:13:49;63.23;;;21.87;;
38937;SDS011;24727;51.974;20.868;2022-12-18T09:16:17;52.30;;;20.13;;
38937;SDS011;24727;51.974;20.868;2022-12-18T09:18:45;61.90;;;21.80;;
38937;SDS011;24727;51.974;20.868;2022-12-18T09:21:13;59.30;;;21.63;;
38937;SDS011;24727;51.974;20.868;2022-12-18T09:23:42;57.33;;;22.70;;
38937;SDS011;24727;51.974;20.868;2022-12-18T09:26:09;53.80;;;20.93;;
38937;SDS011;24727;51.974;20.868;2022-12-18T09:28:35;54.23;;;19.87;;
38937;SDS011;24727;51.974;20.868;2022-12-18T09:31:05;51.53;;;20.53;;
38937;SDS011;24727;51.974;20.868;2022-12-18T09:33:36;57.40;;;19.83;;
38937;SDS011;24727;51.974;20.868;2022-12-18T09:36:03;55.03;;;20.47;;
38937;SDS011;24727;51.974;20.868;2022-12-18T09:38:32;52.87;;;20.50;;
38937;SDS011;24727;51.974;20.868;2022-12-18T09:46:10;50.50;;;19.13;;
38937;SDS011;24727;51.974;20.868;2022-12-18T09:48:42;45.73;;;16.97;;
38937;SDS011;24727;51.974;20.868;2022-12-18T09:51:16;53.03;;;20.65;;
38937;SDS011;24727;51.974;20.868;2022-12-18T09:54:00;50.78;;;20.08;;
38937;SDS011;24727;51.974;20.868;2022-12-18T09:56:31;49.67;;;21.05;;
38937;SDS011;24727;51.974;20.868;2022-12-18T09:59:03;50.47;;;19.85;;
38937;SDS011;24727;51.974;20.868;2022-12-18T10:01:32;52.27;;;20.03;;
38937;SDS011;24727;51.974;20.868;2022-12-18T10:04:00;50.87;;;20.53;;
38937;SDS011;24727;51.974;20.868;2022-12-18T10:06:29;57.47;;;20.87;;
38937;SDS011;24727;51.974;20.868;2022-12-18T10:15:23;47.30;;;19.40;;
38937;SDS011;24727;51.974;20.868;2022-12-18T10:20:43;44.97;;;18.67;;
38937;SDS011;24727;51.974;20.868;2022-12-18T10:28:32;50.80;;;18.93;;
38937;SDS011;24727;51.974;20.868;2022-12-18T10:31:05;47.90;;;18.47;;
38937;SDS011;24727;51.974;20.868;2022-12-18T10:33:32;43.70;;;18.60;;
38937;SDS011;24727;51.974;20.868;2022-12-18T10:35:59;47.17;;;16.30;;
38937;SDS011;24727;51.974;20.868;2022-12-18T10:38:27;46.53;;;17.93;;
38937;SDS011;24727;51.974;20.868;2022-12-18T10:40:55;45.67;;;16.53;;
38937;SDS011;24727;51.974;20.868;2022-12-18T10:43:24;41.97;;;18.33;;
38937;SDS011;24727;51.974;20.868;2022-12-18T10:51:31;43.30;;;17.70;;
38937;SDS011;24727;51.974;20.868;2022-12-18T10:53:59;48.80;;;17.40;;
38937;SDS011;24727;51.974;20.868;2022-12-18T10:56:33;39.22;;;18.38;;
38937;SDS011;24727;51.974;20.868;2022-12-18T10:59:04;46.70;;;16.47;;
38937;SDS011;24727;51.974;20.868;2022-12-18T11:04:23;41.93;;;16.20;;
38937;SDS011;24727;51.974;20.868;2022-12-18T11:09:26;39.90;;;16.77;;
38937;SDS011;24727;51.974;20.868;2022-12-18T11:11:58;40.60;;;17.10;;
38937;SDS011;24727;51.974;20.868;2022-12-18T11:17:18;39.37;;;15.40;;
38937;SDS011;24727;51.974;20.868;2022-12-18T11:19:58;41.80;;;16.77;;
38937;SDS011;24727;51.974;20.868;2022-12-18T11:22:35;36.70;;;14.10;;
38937;SDS011;24727;51.974;20.868;2022-12-18T11:27:46;37.55;;;15.32;;
38937;SDS011;24727;51.974;20.868;2022-12-18T11:33:13;39.55;;;15.85;;
38937;SDS011;24727;51.974;20.868;2022-12-18T11:35:56;42.25;;;16.58;;
38937;SDS011;24727;51.974;20.868;2022-12-18T11:38:32;47.97;;;17.85;;
38937;SDS011;24727;51.974;20.868;2022-12-18T11:41:05;38.80;;;17.38;;
38937;SDS011;24727;51.974;20.868;2022-12-18T11:44:11;38.67;;;15.45;;
38937;SDS011;24727;51.974;20.868;2022-12-18T11:46:51;29.13;;;13.52;;
38937;SDS011;24727;51.974;20.868;2022-12-18T11:49:25;46.75;;;20.35;;
38937;SDS011;24727;51.974;20.868;2022-12-18T11:54:28;38.03;;;17.17;;
38937;SDS011;24727;51.974;20.868;2022-12-18T11:59:33;42.22;;;17.48;;
38937;SDS011;24727;51.974;20.868;2022-12-18T12:02:19;36.13;;;16.05;;
38937;SDS011;24727;51.974;20.868;2022-12-18T12:07:38;39.17;;;16.55;;
38937;SDS011;24727;51.974;20.868;2022-12-18T12:13:58;34.20;;;16.25;;
38937;SDS011;24727;51.974;20.868;2022-12-18T12:38:42;35.10;;;15.95;;
38937;SDS011;24727;51.974;20.868;2022-12-18T12:41:19;33.67;;;15.70;;
38937;SDS011;24727;51.974;20.868;2022-12-18T12:44:13;35.08;;;15.27;;
38937;SDS011;24727;51.974;20.868;2022-12-18T12:46:58;32.72;;;15.05;;
38937;SDS011;24727;51.974;20.868;2022-12-18T12:49:36;43.75;;;20.98;;
38937;SDS011;24727;51.974;20.868;2022-12-18T12:52:07;33.35;;;15.13;;
38937;SDS011;24727;51.974;20.868;2022-12-18T12:54:39;33.03;;;14.32;;
38937;SDS011;24727;51.974;20.868;2022-12-18T12:57:18;37.67;;;14.57;;
38937;SDS011;24727;51.974;20.868;2022-12-18T12:59:56;31.15;;;14.70;;
38937;SDS011;24727;51.974;20.868;2022-12-18T13:05:25;30.83;;;14.50;;
38937;SDS011;24727;51.974;20.868;2022-12-18T13:08:06;30.40;;;13.75;;
38937;SDS011;24727;51.974;20.868;2022-12-18T13:10:40;29.58;;;13.43;;
38937;SDS011;24727;51.974;20.868;2022-12-18T13:13:08;29.48;;;14.30;;
38937;SDS011;24727;51.974;20.868;2022-12-18T13:15:48;31.05;;;14.30;;
38937;SDS011;24727;51.974;20.868;2022-12-18T13:18:29;30.80;;;14.38;;
38937;SDS011;24727;51.974;20.868;2022-12-18T13:23:29;31.08;;;12.90;;
38937;SDS011;24727;51.974;20.868;2022-12-18T13:31:12;31.65;;;13.68;;
38937;SDS011;24727;51.974;20.868;2022-12-18T13:34:15;31.80;;;14.50;;
38937;SDS011;24727;51.974;20.868;2022-12-18T13:36:42;28.10;;;12.77;;
38937;SDS011;24727;51.974;20.868;2022-12-18T13:39:20;30.92;;;13.52;;
38937;SDS011;24727;51.974;20.868;2022-12-18T13:41:52;31.77;;;14.25;;
38937;SDS011;24727;51.974;20.868;2022-12-18T13:44:32;28.45;;;13.15;;
38937;SDS011;24727;51.974;20.868;2022-12-18T13:47:07;29.25;;;13.48;;
38937;SDS011;24727;51.974;20.868;2022-12-18T13:49:50;25.85;;;12.55;;
38937;SDS011;24727;51.974;20.868;2022-12-18T13:52:33;29.38;;;13.43;;
38937;SDS011;24727;51.974;20.868;2022-12-18T13:55:04;35.53;;;14.98;;
38937;SDS011;24727;51.974;20.868;2022-12-18T13:57:37;29.52;;;13.57;;
38937;SDS011;24727;51.974;20.868;2022-12-18T14:02:51;37.17;;;15.35;;
38937;SDS011;24727;51.974;20.868;2022-12-18T14:08:14;29.92;;;13.52;;
38937;SDS011;24727;51.974;20.868;2022-12-18T14:10:46;33.65;;;15.55;;
38937;SDS011;24727;51.974;20.868;2022-12-18T14:13:19;35.78;;;15.52;;
38937;SDS011;24727;51.974;20.868;2022-12-18T14:15:52;36.70;;;15.55;;
38937;SDS011;24727;51.974;20.868;2022-12-18T14:21:31;37.70;;;16.85;;
38937;SDS011;24727;51.974;20.868;2022-12-18T14:26:40;36.15;;;15.73;;
38937;SDS011;24727;51.974;20.868;2022-12-18T14:29:26;43.20;;;17.27;;
38937;SDS011;24727;51.974;20.868;2022-12-18T14:32:08;36.85;;;15.32;;
38937;SDS011;24727;51.974;20.868;2022-12-18T14:34:44;33.30;;;15.38;;
38937;SDS011;24727;51.974;20.868;2022-12-18T14:37:38;33.85;;;15.25;;
38937;SDS011;24727;51.974;20.868;2022-12-18T14:40:04;30.60;;;14.15;;
38937;SDS011;24727;51.974;20.868;2022-12-18T14:42:30;32.50;;;14.95;;
38937;SDS011;24727;51.974;20.868;2022-12-18T14:48:01;29.50;;;14.70;;
38937;SDS011;24727;51.974;20.868;2022-12-18T14:50:54;28.85;;;12.85;;
38937;SDS011;24727;51.974;20.868;2022-12-18T14:53:23;29.60;;;13.50;;
38937;SDS011;24727;51.974;20.868;2022-12-18T14:56:03;28.42;;;13.77;;
38937;SDS011;24727;51.974;20.868;2022-12-18T14:58:43;27.10;;;13.23;;
38937;SDS011;24727;51.974;20.868;2022-12-18T15:01:17;27.15;;;12.93;;
38937;SDS011;24727;51.974;20.868;2022-12-18T15:03:50;28.48;;;13.88;;
38937;SDS011;24727;51.974;20.868;2022-12-18T15:06:21;27.05;;;12.52;;
38937;SDS011;24727;51.974;20.868;2022-12-18T15:08:54;28.90;;;13.10;;
38937;SDS011;24727;51.974;20.868;2022-12-18T15:11:30;28.83;;;13.25;;
38937;SDS011;24727;51.974;20.868;2022-12-18T15:14:22;31.20;;;14.60;;
38937;SDS011;24727;51.974;20.868;2022-12-18T15:16:53;32.28;;;12.85;;
38937;SDS011;24727;51.974;20.868;2022-12-18T15:19:21;35.33;;;15.37;;
38937;SDS011;24727;51.974;20.868;2022-12-18T15:21:48;34.65;;;14.73;;
38937;SDS011;24727;51.974;20.868;2022-12-18T15:24:21;36.55;;;15.60;;
38937;SDS011;24727;51.974;20.868;2022-12-18T15:29:22;32.92;;;14.52;;
38937;SDS011;24727;51.974;20.868;2022-12-18T15:31:58;30.88;;;13.70;;
38937;SDS011;24727;51.974;20.868;2022-12-18T15:34:27;32.72;;;15.23;;
38937;SDS011;24727;51.974;20.868;2022-12-18T15:36:54;34.15;;;15.40;;
38937;SDS011;24727;51.974;20.868;2022-12-18T15:39:21;36.50;;;14.77;;
38937;SDS011;24727;51.974;20.868;2022-12-18T15:41:47;29.45;;;14.25;;
38937;SDS011;24727;51.974;20.868;2022-12-18T15:44:33;28.10;;;13.10;;
38937;SDS011;24727;51.974;20.868;2022-12-18T15:47:33;32.97;;;13.85;;
38937;SDS011;24727;51.974;20.868;2022-12-18T15:49:54;27.95;;;13.65;;
38937;SDS011;24727;51.974;20.868;2022-12-18T15:52:21;30.60;;;14.20;;
38937;SDS011;24727;51.974;20.868;2022-12-18T15:54:52;30.50;;;15.13;;
38937;SDS011;24727;51.974;20.868;2022-12-18T15:57:38;27.88;;;13.35;;
38937;SDS011;24727;51.974;20.868;2022-12-18T16:00:04;25.92;;;11.95;;
38937;SDS011;24727;51.974;20.868;2022-12-18T16:02:33;31.50;;;14.00;;
38937;SDS011;24727;51.974;20.868;2022-12-18T16:05:00;31.40;;;14.20;;
38937;SDS011;24727;51.974;20.868;2022-12-18T16:07:29;29.15;;;13.65;;
38937;SDS011;24727;51.974;20.868;2022-12-18T16:09:57;34.13;;;15.30;;
38937;SDS011;24727;51.974;20.868;2022-12-18T16:12:24;36.55;;;15.10;;
38937;SDS011;24727;51.974;20.868;2022-12-18T16:14:51;31.88;;;14.57;;
38937;SDS011;24727;51.974;20.868;2022-12-18T16:17:17;29.30;;;13.65;;
38937;SDS011;24727;51.974;20.868;2022-12-18T16:19:44;31.38;;;13.60;;
38937;SDS011;24727;51.974;20.868;2022-12-18T16:22:29;35.53;;;16.08;;
38937;SDS011;24727;51.974;20.868;2022-12-18T16:24:58;30.60;;;14.68;;
38937;SDS011;24727;51.974;20.868;2022-12-18T16:27:26;39.85;;;17.08;;
38937;SDS011;24727;51.974;20.868;2022-12-18T16:29:53;28.08;;;13.63;;
38937;SDS011;24727;51.974;20.868;2022-12-18T16:32:20;33.50;;;15.15;;
38937;SDS011;24727;51.974;20.868;2022-12-18T16:34:48;38.53;;;16.73;;
38937;SDS011;24727;51.974;20.868;2022-12-18T16:37:15;29.83;;;14.18;;
38937;SDS011;24727;51.974;20.868;2022-12-18T16:39:45;26.58;;;13.18;;
38937;SDS011;24727;51.974;20.868;2022-12-18T16:42:16;31.92;;;14.38;;
38937;SDS011;24727;51.974;20.868;2022-12-18T16:44:44;35.08;;;14.65;;
38937;SDS011;24727;51.974;20.868;2022-12-18T16:47:12;32.40;;;14.55;;
38937;SDS011;24727;51.974;20.868;2022-12-18T16:49:40;38.83;;;16.55;;
38937;SDS011;24727;51.974;20.868;2022-12-18T16:52:07;30.65;;;14.52;;
38937;SDS011;24727;51.974;20.868;2022-12-18T16:54:34;38.03;;;16.55;;
38937;SDS011;24727;51.974;20.868;2022-12-18T16:57:01;41.38;;;16.55;;
38937;SDS011;24727;51.974;20.868;2022-12-18T16:59:30;34.22;;;15.52;;